Time;durP1;ratioP1;P1;durP2;ratioP2;P2;SDS_P1;SDS_P2;PMS_P1;PMS_P2;Temp;Humidity;BMP_temperature;BMP_pressure;BME280_temperature;BME280_humidity;BME280_pressure;Samples;Min_cycle;Max_cycle;Signal;HPM_P1;HPM_P2
2022/05/17 00:02:21;;;;;;;4.10;2.60;;;;;;;13.78;54.80;98541.62;106344;1280;22561;-72
2022/05/17 00:04:50;;;;;;;5.10;2.30;;;;;;;13.78;55.03;98541.17;106153;1277;137463;-72
2022/05/17 00:07:17;;;;;;;3.90;2.10;;;;;;;13.76;54.86;98539.02;106271;1278;24211;-72
2022/05/17 00:09:44;;;;;;;5.00;2.10;;;;;;;13.74;54.95;98537.48;105970;1278;138289;-74
2022/05/17 00:12:12;;;;;;;3.20;2.10;;;;;;;13.71;55.08;98542.77;106027;1278;24421;-72
2022/05/17 00:14:39;;;;;;;6.00;2.60;;;;;;;13.69;55.10;98544.23;105824;1279;138009;-72
2022/05/17 00:17:06;;;;;;;3.30;1.90;;;;;;;13.69;55.33;98550.14;106332;1279;22538;-72
2022/05/17 00:19:33;;;;;;;5.70;1.90;;;;;;;13.65;55.40;98544.32;106242;1277;22551;-72
2022/05/17 00:22:00;;;;;;;3.90;2.10;;;;;;;13.63;55.38;98543.20;105830;1278;138014;-74
2022/05/17 00:24:27;;;;;;;5.30;2.50;;;;;;;13.62;55.62;98541.89;105860;1280;25363;-72
2022/05/17 00:26:54;;;;;;;5.30;2.40;;;;;;;13.61;55.85;98538.27;106074;1279;137699;-72
2022/05/17 00:29:21;;;;;;;5.80;2.20;;;;;;;13.59;55.84;98532.95;106161;1278;26505;-74
2022/05/17 00:31:52;;;;;;;2.50;2.20;;;;;;;13.58;55.68;98529.94;106020;1279;22538;-73
2022/05/17 00:34:20;;;;;;;5.10;2.20;;;;;;;13.57;55.93;98524.55;106152;1279;140798;-73
2022/05/17 00:36:47;;;;;;;4.10;2.40;;;;;;;13.53;56.08;98525.08;105970;1279;22660;-72
2022/05/17 00:39:14;;;;;;;6.10;2.30;;;;;;;13.51;55.98;98526.42;106138;1280;137997;-72
2022/05/17 00:41:41;;;;;;;5.60;2.50;;;;;;;13.50;56.21;98525.66;106389;1279;22701;-72
2022/05/17 00:47:14;;;;;;;5.60;2.50;;;;;;;13.48;56.57;98521.05;105979;1277;138109;-72
2022/05/17 00:49:42;;;;;;;5.50;2.40;;;;;;;13.44;56.59;98513.41;105919;1277;22585;-72
2022/05/17 00:52:16;;;;;;;5.10;2.30;;;;;;;13.42;56.70;98512.69;106464;1277;138040;-75
2022/05/17 00:54:44;;;;;;;4.80;2.40;;;;;;;13.40;57.00;98511.80;105898;1280;25266;-72
2022/05/17 00:57:33;;;;;;;7.40;2.70;;;;;;;13.39;57.02;98507.85;105973;1280;139009;-72
2022/05/17 01:00:17;;;;;;;4.80;2.60;;;;;;;13.36;57.01;98504.77;106060;1278;23313;-72
2022/05/17 01:02:52;;;;;;;5.60;2.70;;;;;;;13.36;57.19;98504.86;106023;1278;138299;-72
2022/05/17 01:05:23;;;;;;;5.20;2.40;;;;;;;13.33;57.30;98508.67;106098;1280;22537;-73
2022/05/17 01:07:54;;;;;;;6.50;2.50;;;;;;;13.30;57.51;98505.09;106098;1280;30549;-73
2022/05/17 01:10:23;;;;;;;5.80;2.50;;;;;;;13.26;57.58;98503.02;106145;1278;137955;-73
2022/05/17 01:15:34;;;;;;;6.20;2.90;;;;;;;13.22;57.60;98493.08;105809;1279;137998;-73
2022/05/17 01:18:04;;;;;;;4.00;2.70;;;;;;;13.21;57.89;98488.05;106495;1277;23091;-74
2022/05/17 01:20:32;;;;;;;;;;;;;;;13.21;58.17;98491.16;106121;1280;25324;-73
2022/05/17 01:23:00;;;;;;;5.20;2.40;;;;;;;13.19;57.98;98492.23;106225;1277;123870;-73
2022/05/17 01:25:28;;;;;;;3.70;2.70;;;;;;;13.16;58.23;98492.48;106193;1277;22574;-73
2022/05/17 01:27:59;;;;;;;6.70;3.20;;;;;;;13.15;58.30;98495.77;106346;1277;138103;-73
2022/05/17 01:30:29;;;;;;;4.10;2.60;;;;;;;13.15;58.47;98495.86;106543;1280;25593;-73
2022/05/17 01:32:56;;;;;;;6.70;3.00;;;;;;;13.15;58.50;98500.92;106184;1280;137846;-73
2022/05/17 01:35:23;;;;;;;6.70;3.30;;;;;;;13.15;58.52;98502.34;106131;1280;24427;-73
2022/05/17 01:37:59;;;;;;;6.00;2.70;;;;;;;13.13;58.60;98502.20;106181;1277;25324;-73
2022/05/17 01:40:28;;;;;;;5.80;2.50;;;;;;;13.13;58.74;98500.23;105861;1277;137741;-73
2022/05/17 01:42:57;;;;;;;5.30;2.50;;;;;;;13.11;58.85;98497.10;106162;1280;25369;-73
2022/05/17 01:45:24;;;;;;;5.30;2.30;;;;;;;13.09;58.90;98495.72;105943;1277;137665;-73
2022/05/17 01:47:51;;;;;;;4.40;2.80;;;;;;;13.07;59.01;98489.52;106008;1277;22675;-74
2022/05/17 01:50:18;;;;;;;10.80;3.00;;;;;;;13.05;58.85;98485.95;106177;1280;22566;-74
2022/05/17 01:52:44;;;;;;;4.80;2.90;;;;;;;13.04;59.06;98484.40;106442;1279;137900;-74
2022/05/17 01:55:11;;;;;;;5.90;2.50;;;;;;;13.02;59.44;98482.05;106232;1279;22566;-73
2022/05/17 01:57:41;;;;;;;5.30;2.80;;;;;;;13.01;59.34;98474.66;105603;1280;137587;-74
2022/05/17 02:00:12;;;;;;;8.20;3.20;;;;;;;12.99;59.32;98471.95;105930;1280;22550;-74
2022/05/17 02:02:41;;;;;;;4.10;2.60;;;;;;;12.98;59.68;98476.48;106141;1280;137602;-74
2022/05/17 02:05:09;;;;;;;6.60;2.70;;;;;;;12.96;59.31;98476.02;106259;1280;22546;-74
2022/05/17 02:07:36;;;;;;;7.90;2.70;;;;;;;12.96;59.54;98479.23;106070;1279;25352;-74
2022/05/17 02:10:04;;;;;;;5.50;2.80;;;;;;;12.94;59.35;98489.19;106154;1279;137583;-73
2022/05/17 02:12:31;;;;;;;4.20;3.10;;;;;;;12.91;59.54;98484.17;105807;1280;22542;-73
2022/05/17 02:14:58;;;;;;;7.00;3.00;;;;;;;12.88;59.38;98476.50;105611;1279;138462;-73
2022/05/17 02:17:24;;;;;;;4.10;2.80;;;;;;;12.85;59.48;98470.96;105792;1280;26547;-73
2022/05/17 02:19:51;;;;;;;4.40;2.30;;;;;;;12.82;59.34;98478.53;105905;1280;23230;-73
2022/05/17 02:22:18;;;;;;;5.30;2.70;;;;;;;12.80;59.55;98474.30;105975;1280;137509;-73
2022/05/17 02:24:45;;;;;;;3.90;2.60;;;;;;;12.75;59.88;98469.23;105795;1280;24356;-73
2022/05/17 02:27:12;;;;;;;4.50;2.70;;;;;;;12.71;60.02;98469.19;105826;1280;137683;-73
2022/05/17 02:29:39;;;;;;;3.50;2.30;;;;;;;12.67;60.16;98469.14;106052;1279;30566;-73
2022/05/17 02:32:06;;;;;;;7.60;3.00;;;;;;;12.64;60.58;98473.87;105842;1279;24289;-73
2022/05/17 02:34:36;;;;;;;6.20;3.00;;;;;;;12.60;60.44;98477.55;106137;1279;137773;-73
2022/05/17 02:37:04;;;;;;;5.30;2.60;;;;;;;12.57;60.72;98478.77;105970;1280;22570;-73
2022/05/17 02:39:31;;;;;;;4.70;2.50;;;;;;;12.55;60.49;98476.56;105858;1279;138043;-73
2022/05/17 02:41:58;;;;;;;5.90;2.60;;;;;;;12.53;60.81;98473.83;106040;1280;24379;-73
2022/05/17 02:44:25;;;;;;;4.40;2.90;;;;;;;12.52;60.79;98467.21;106232;1277;22535;-74
2022/05/17 02:46:52;;;;;;;4.80;2.80;;;;;;;12.52;61.26;98469.44;106325;1280;137581;-73
2022/05/17 02:49:19;;;;;;;4.20;2.30;;;;;;;12.51;60.88;98464.23;106122;1280;25260;-73
2022/05/17 02:51:46;;;;;;;5.30;2.40;;;;;;;12.50;60.59;98468.36;105639;1280;137863;-73
2022/05/17 02:54:13;;;;;;;6.20;2.70;;;;;;;12.48;60.59;98463.70;105987;1279;26505;-73
2022/05/17 02:56:40;;;;;;;4.10;2.60;;;;;;;12.46;60.90;98458.61;106014;1280;138004;-73
2022/05/17 02:59:07;;;;;;;4.30;2.80;;;;;;;12.45;61.15;98461.89;106041;1280;22634;-73
2022/05/17 03:01:33;;;;;;;9.40;3.10;;;;;;;12.40;60.78;98463.36;106068;1280;23081;-73
2022/05/17 03:04:01;;;;;;;6.60;3.50;;;;;;;12.38;61.01;98468.84;105996;1280;137626;-73
2022/05/17 03:06:27;;;;;;;6.40;2.90;;;;;;;12.35;61.16;98470.64;106020;1278;25348;-73
2022/05/17 03:08:54;;;;;;;6.40;3.10;;;;;;;12.33;61.35;98477.86;105956;1277;138220;-73
2022/05/17 03:11:21;;;;;;;5.50;2.90;;;;;;;12.32;61.38;98485.11;105914;1280;25257;-73
2022/05/17 03:13:48;;;;;;;6.60;3.10;;;;;;;12.30;61.48;98485.25;105901;1280;25345;-73
2022/05/17 03:16:15;;;;;;;5.40;2.60;;;;;;;12.28;61.31;98485.89;106154;1279;137459;-73
2022/05/17 03:18:43;;;;;;;5.10;3.00;;;;;;;12.27;61.68;98480.80;106141;1278;23821;-73
2022/05/17 03:21:11;;;;;;;4.00;2.90;;;;;;;12.28;61.46;98477.64;106255;1277;137733;-73
2022/05/17 03:23:38;;;;;;;4.00;2.70;;;;;;;12.28;61.67;98476.44;105895;1280;22595;-73
2022/05/17 03:26:05;;;;;;;7.90;3.60;;;;;;;12.30;61.77;98480.18;105991;1278;22586;-73
2022/05/17 03:28:32;;;;;;;11.40;4.50;;;;;;;12.31;62.15;98483.03;105939;1280;137476;-73
2022/05/17 03:31:14;;;;;;;5.00;3.10;;;;;;;12.33;62.22;98476.23;106013;1281;25259;-73
2022/05/17 03:33:42;;;;;;;5.10;2.50;;;;;;;12.36;62.06;98475.16;106053;1279;137885;-73
2022/05/17 03:36:09;;;;;;;5.20;2.50;;;;;;;12.40;61.76;98474.13;106259;1279;25271;-73
2022/05/17 03:38:38;;;;;;;6.60;3.00;;;;;;;12.44;62.02;98474.60;106049;1279;23473;-73
2022/05/17 03:41:05;;;;;;;5.80;3.10;;;;;;;12.46;61.81;98480.35;106108;1278;137638;-73
2022/05/17 03:43:32;;;;;;;5.20;3.20;;;;;;;12.50;61.81;98477.77;105923;1280;24435;-73
2022/05/17 03:45:59;;;;;;;5.70;3.30;;;;;;;12.54;61.45;98481.48;106159;1278;137435;-73
2022/05/17 03:48:28;;;;;;;8.70;3.00;;;;;;;12.57;61.72;98482.22;106042;1280;22567;-73
2022/05/17 03:50:55;;;;;;;6.30;3.10;;;;;;;12.62;61.31;98486.96;106323;1279;138101;-73
2022/05/17 03:53:22;;;;;;;5.00;2.90;;;;;;;12.65;61.94;98490.88;106299;1279;25260;-73
2022/05/17 03:55:49;;;;;;;7.70;3.20;;;;;;;12.70;61.73;98491.91;106258;1279;24288;-73
2022/05/17 03:58:16;;;;;;;5.40;3.00;;;;;;;12.75;61.94;98489.61;105967;1279;137581;-73
2022/05/17 04:00:43;;;;;;;5.30;2.80;;;;;;;12.79;61.81;98486.21;105999;1278;22608;-73
2022/05/17 04:03:10;;;;;;;5.90;3.30;;;;;;;12.81;61.41;98485.55;106063;1278;137832;-73
2022/05/17 04:05:38;;;;;;;6.70;3.50;;;;;;;12.83;61.44;98497.55;106027;1277;25369;-73
2022/05/17 04:08:05;;;;;;;6.50;2.90;;;;;;;12.85;61.05;98498.78;106032;1277;22670;-73
2022/05/17 04:10:32;;;;;;;5.90;3.10;;;;;;;12.87;61.32;98500.77;105958;1280;137635;-73
2022/05/17 04:12:58;;;;;;;6.80;3.10;;;;;;;12.88;61.26;98504.77;105937;1279;22541;-73
2022/05/17 04:15:25;;;;;;;5.90;2.90;;;;;;;12.90;60.94;98506.87;106137;1280;137977;-73
2022/05/17 04:17:54;;;;;;;6.90;3.10;;;;;;;12.93;61.34;98510.94;106058;1279;25522;-73
2022/05/17 04:20:21;;;;;;;10.10;3.20;;;;;;;12.98;61.01;98504.41;106114;1278;22552;-73
2022/05/17 04:22:52;;;;;;;4.50;2.80;;;;;;;13.01;60.98;98500.17;106263;1277;138037;-73
2022/05/17 04:25:23;;;;;;;4.60;2.80;;;;;;;13.05;61.42;98499.84;106262;1278;22554;-73
2022/05/17 04:27:50;;;;;;;5.30;2.80;;;;;;;13.10;61.57;98502.72;106107;1280;137996;-73
2022/05/17 04:30:18;;;;;;;6.50;3.00;;;;;;;13.14;61.43;98503.46;106282;1278;22554;-73
2022/05/17 04:32:48;;;;;;;6.40;2.80;;;;;;;13.17;61.48;98500.31;105910;1280;139309;-73
2022/05/17 04:35:18;;;;;;;4.00;2.70;;;;;;;13.20;61.12;98498.09;106058;1280;22860;-73
2022/05/17 04:37:45;;;;;;;4.60;2.70;;;;;;;13.25;61.48;98491.58;106108;1279;22612;-73
2022/05/17 04:40:13;;;;;;;4.50;2.70;;;;;;;13.31;61.78;98491.37;106586;1277;137683;-73
2022/05/17 04:42:43;;;;;;;6.20;3.00;;;;;;;13.37;61.71;98489.52;106365;1278;22548;-73
2022/05/17 04:45:13;;;;;;;7.60;3.10;;;;;;;13.41;61.31;98491.73;106282;1280;137562;-73
2022/05/17 04:47:42;;;;;;;6.60;3.20;;;;;;;13.46;61.03;98494.77;106087;1278;22826;-73
2022/05/17 04:50:11;;;;;;;5.00;3.20;;;;;;;13.51;60.91;98500.70;106043;1277;22692;-74
2022/05/17 04:52:38;;;;;;;;;;;;;;;13.56;60.62;98500.86;105957;1280;137442;-73
2022/05/17 04:55:20;;;;;;;4.80;3.00;;;;;;;13.60;60.53;98501.21;106002;1280;22720;-73
2022/05/17 04:57:47;;;;;;;8.10;3.20;;;;;;;13.68;60.47;98505.04;105742;1280;137924;-73
2022/05/17 05:00:18;;;;;;;5.00;3.40;;;;;;;13.75;60.47;98503.88;105842;1279;22574;-73
2022/05/17 05:02:46;;;;;;;5.20;3.50;;;;;;;13.83;60.10;98504.64;106339;1279;137896;-73
2022/05/17 05:05:14;;;;;;;6.70;3.30;;;;;;;13.92;60.09;98508.08;106393;1279;22995;-73
2022/05/17 05:07:41;;;;;;;6.20;3.40;;;;;;;13.99;60.04;98512.33;106272;1279;25335;-73
2022/05/17 05:10:09;;;;;;;6.50;3.10;;;;;;;14.03;59.50;98509.57;106129;1278;137406;-73
2022/05/17 05:12:37;;;;;;;5.50;3.60;;;;;;;14.07;59.49;98505.04;105892;1279;24299;-73
2022/05/17 05:15:04;;;;;;;4.00;3.10;;;;;;;14.12;59.82;98505.49;106550;1280;137851;-73
2022/05/17 05:17:33;;;;;;;6.90;3.20;;;;;;;14.17;60.03;98509.14;106375;1278;24282;-73
2022/05/17 05:20:01;;;;;;;4.80;3.40;;;;;;;14.23;59.56;98510.25;105923;1278;24182;-73
2022/05/17 05:22:30;;;;;;;5.10;3.50;;;;;;;14.29;59.86;98512.04;105832;1279;137912;-73
2022/05/17 05:24:57;;;;;;;6.60;3.30;;;;;;;14.35;59.57;98514.30;106170;1278;24286;-73
2022/05/17 05:27:24;;;;;;;5.60;3.20;;;;;;;14.40;59.66;98512.51;106257;1278;137681;-73
2022/05/17 05:29:51;;;;;;;9.60;3.30;;;;;;;14.47;59.75;98512.91;106079;1278;22634;-73
2022/05/17 05:32:18;;;;;;;7.40;3.40;;;;;;;14.55;59.73;98518.36;106024;1279;22556;-75
2022/05/17 05:34:45;;;;;;;4.70;2.90;;;;;;;14.63;59.34;98517.05;105854;1281;137515;-73
2022/05/17 05:37:12;;;;;;;4.70;3.10;;;;;;;14.70;59.32;98518.43;106036;1280;25323;-73
2022/05/17 05:39:38;;;;;;;5.40;3.20;;;;;;;14.73;58.84;98515.16;105760;1281;137874;-73
2022/05/17 05:42:06;;;;;;;5.40;3.40;;;;;;;14.76;59.14;98517.30;106380;1279;22538;-73
2022/05/17 05:44:34;;;;;;;7.00;3.20;;;;;;;14.81;58.85;98516.92;105999;1279;23211;-73
2022/05/17 05:47:15;;;;;;;4.70;3.20;;;;;;;14.88;58.76;98520.23;105922;1277;137445;-73
2022/05/17 05:49:42;;;;;;;7.80;3.20;;;;;;;14.96;59.04;98521.61;106042;1277;22576;-73
2022/05/17 05:52:09;;;;;;;6.70;3.30;;;;;;;15.06;59.24;98514.54;105974;1277;137544;-73
2022/05/17 05:54:36;;;;;;;6.80;3.20;;;;;;;15.13;58.55;98511.37;106406;1278;22547;-73
2022/05/17 05:57:03;;;;;;;5.90;3.20;;;;;;;15.24;58.46;98517.52;106337;1280;137764;-73
2022/05/17 05:59:30;;;;;;;6.40;3.10;;;;;;;15.33;58.57;98512.69;106164;1280;22551;-74
2022/05/17 06:02:00;;;;;;;9.70;3.10;;;;;;;15.43;58.24;98518.34;106137;1280;22694;-73
2022/05/17 06:04:28;;;;;;;9.60;3.00;;;;;;;15.52;58.22;98516.41;106071;1277;137914;-73
2022/05/17 06:06:56;;;;;;;5.80;3.10;;;;;;;15.64;58.07;98513.70;106367;1277;23207;-73
2022/05/17 06:09:25;;;;;;;8.10;2.90;;;;;;;15.76;57.52;98518.64;106088;1278;137853;-74
2022/05/17 06:11:53;;;;;;;6.40;2.80;;;;;;;15.85;57.22;98517.77;107122;1277;22655;-73
2022/05/17 06:14:20;;;;;;;8.10;3.10;;;;;;;15.94;57.26;98512.91;106336;1278;24233;-74
2022/05/17 06:16:49;;;;;;;8.80;3.20;;;;;;;16.04;56.86;98505.52;106131;1277;138119;-74
2022/05/17 06:19:16;;;;;;;8.20;3.10;;;;;;;16.12;56.05;98503.02;106864;1280;22506;-73
2022/05/17 06:21:43;;;;;;;7.00;3.10;;;;;;;16.18;55.57;98507.55;106748;1277;137922;-73
2022/05/17 06:24:11;;;;;;;7.40;3.50;;;;;;;16.24;55.36;98508.69;106100;1277;30187;-74
2022/05/17 06:26:37;;;;;;;5.10;3.20;;;;;;;16.30;55.45;98510.42;106483;1277;22588;-74
2022/05/17 06:29:06;;;;;;;6.10;3.10;;;;;;;16.36;54.90;98509.46;106710;1277;138016;-73
2022/05/17 06:31:33;;;;;;;6.40;3.10;;;;;;;16.43;54.92;98509.32;106812;1278;23244;-73
2022/05/17 06:34:00;;;;;;;5.10;3.00;;;;;;;16.52;54.75;98508.08;106972;1278;137737;-74
2022/05/17 06:36:27;;;;;;;7.50;3.30;;;;;;;16.61;54.44;98509.83;106220;1278;22528;-74
2022/05/17 06:38:54;;;;;;;9.30;3.00;;;;;;;16.68;54.41;98509.02;106118;1278;139079;-73
2022/05/17 06:41:21;;;;;;;4.60;2.70;;;;;;;16.75;53.82;98507.16;106331;1277;23082;-74
2022/05/17 06:43:48;;;;;;;5.60;3.00;;;;;;;16.80;53.28;98504.60;106651;1277;22546;-74
2022/05/17 06:46:15;;;;;;;8.60;3.00;;;;;;;16.88;53.51;98504.31;106391;1278;138235;-74
2022/05/17 06:48:43;;;;;;;6.60;2.70;;;;;;;16.97;53.55;98500.29;106069;1277;26659;-74
2022/05/17 06:51:10;;;;;;;7.20;2.90;;;;;;;17.04;53.45;98496.44;107300;1277;137832;-74
2022/05/17 06:53:37;;;;;;;7.70;2.80;;;;;;;17.12;53.09;98494.07;106000;1277;26148;-74
2022/05/17 06:56:21;;;;;;;7.40;2.80;;;;;;;17.20;52.88;98489.54;106998;1280;22572;-74
2022/05/17 06:58:48;;;;;;;8.50;2.90;;;;;;;17.25;52.63;98490.48;106245;1278;137574;-74
2022/05/17 07:01:15;;;;;;;9.00;3.00;;;;;;;17.34;52.93;98485.41;106606;1278;22933;-74
2022/05/17 07:03:42;;;;;;;9.00;3.20;;;;;;;17.42;52.10;98485.83;107046;1277;137818;-74
2022/05/17 07:06:10;;;;;;;8.60;3.20;;;;;;;17.50;52.32;98484.11;106433;1278;25447;-74
2022/05/17 07:08:38;;;;;;;7.80;2.80;;;;;;;17.58;52.26;98484.76;106540;1277;22740;-74
2022/05/17 07:13:47;;;;;;;9.90;2.90;;;;;;;17.79;52.03;98502.61;106178;1281;22721;-74
2022/05/17 07:16:14;;;;;;;3.90;2.50;;;;;;;17.89;51.40;98508.16;105961;1277;137454;-74
2022/05/17 07:18:42;;;;;;;7.60;2.90;;;;;;;17.98;51.10;98504.25;106111;1277;22608;-74
2022/05/17 07:21:11;;;;;;;6.20;2.80;;;;;;;18.12;51.55;98501.34;106301;1278;138293;-74
2022/05/17 07:23:38;;;;;;;6.70;2.20;;;;;;;18.25;51.51;98505.27;106306;1278;22572;-74
2022/05/17 07:26:05;;;;;;;8.50;3.00;;;;;;;18.33;50.85;98505.70;106067;1278;23135;-74
2022/05/17 07:28:38;;;;;;;4.30;2.30;;;;;;;18.42;49.89;98502.46;106611;1277;137592;-74
2022/05/17 07:31:05;;;;;;;6.50;2.50;;;;;;;18.54;50.20;98504.84;106195;1277;22648;-74
2022/05/17 07:33:32;;;;;;;8.70;2.50;;;;;;;18.64;49.01;98505.27;106009;1277;137620;-74
2022/05/17 07:35:59;;;;;;;8.90;2.50;;;;;;;18.73;49.11;98505.63;106068;1278;22550;-74
2022/05/17 07:38:27;;;;;;;4.60;2.30;;;;;;;18.87;49.34;98500.83;105810;1281;25283;-74
2022/05/17 07:40:54;;;;;;;4.30;2.00;;;;;;;18.97;48.72;98506.13;106331;1278;137526;-74
2022/05/17 07:43:22;;;;;;;7.60;3.30;;;;;;;19.04;48.33;98500.35;105981;1277;25518;-74
2022/05/17 07:46:03;;;;;;;10.40;2.70;;;;;;;19.12;48.13;98498.45;106185;1277;137573;-73
2022/05/17 07:48:30;;;;;;;8.00;2.00;;;;;;;19.23;48.02;98503.42;106058;1277;22540;-74
2022/05/17 07:50:57;;;;;;;6.90;2.00;;;;;;;19.33;47.88;98508.00;105744;1278;138332;-73
2022/05/17 07:53:24;;;;;;;5.20;2.90;;;;;;;19.40;47.21;98499.60;106239;1277;22609;-74
2022/05/17 07:55:51;;;;;;;6.80;2.20;;;;;;;19.47;47.02;98499.86;106100;1277;25266;-73
2022/05/17 07:58:19;;;;;;;3.30;2.10;;;;;;;19.49;46.57;98499.77;106301;1280;137597;-74
2022/05/17 08:00:47;;;;;;;6.20;2.10;;;;;;;19.52;46.42;98499.30;106355;1277;25323;-74
2022/05/17 08:03:16;;;;;;;6.40;1.80;;;;;;;19.57;46.36;98495.23;105921;1278;158930;-74
2022/05/17 08:05:43;;;;;;;;;;;;;;;19.64;46.21;98489.41;106450;1277;22650;-74
2022/05/17 08:08:11;;;;;;;4.60;1.60;;;;;;;19.69;46.32;98485.56;105942;1278;22550;-74
2022/05/17 08:10:39;;;;;;;9.00;1.60;;;;;;;19.82;46.58;98482.98;106189;1277;137523;-74
2022/05/17 08:13:07;;;;;;;2.80;1.70;;;;;;;19.91;45.68;98483.14;106009;1277;25308;-74
2022/05/17 08:15:34;;;;;;;6.10;1.80;;;;;;;20.02;45.59;98484.59;106069;1277;137869;-74
2022/05/17 08:18:03;;;;;;;3.10;1.70;;;;;;;20.15;44.49;98489.08;106027;1277;22709;-74
2022/05/17 08:20:31;;;;;;;5.00;1.30;;;;;;;20.27;43.99;98486.45;106244;1277;25535;-74
2022/05/17 08:22:58;;;;;;;4.10;1.40;;;;;;;20.45;43.91;98487.41;105939;1280;137547;-74
2022/05/17 08:28:07;;;;;;;3.10;1.60;;;;;;;20.84;41.77;98480.38;105873;1278;137568;-74
2022/05/17 08:30:35;;;;;;;5.40;1.60;;;;;;;20.96;41.02;98474.61;105812;1278;24306;-74
2022/05/17 08:33:16;;;;;;;4.80;1.40;;;;;;;21.05;40.76;98475.86;105541;1278;137720;-74
2022/05/17 08:35:53;;;;;;;2.00;1.50;;;;;;;21.14;40.96;98477.00;106098;1277;22554;-74
2022/05/17 08:38:38;;;;;;;5.00;1.80;;;;;;;21.22;40.49;98482.90;106062;1277;22579;-75
2022/05/17 08:41:26;;;;;;;4.90;1.30;;;;;;;21.31;40.25;98479.46;105865;1277;137554;-74
2022/05/17 08:44:13;;;;;;;5.70;1.40;;;;;;;21.47;40.25;98480.09;106233;1277;22777;-74
2022/05/17 08:46:46;;;;;;;8.50;1.20;;;;;;;21.54;39.71;98481.35;105643;1277;137555;-75
2022/05/17 08:49:22;;;;;;;4.90;1.10;;;;;;;21.64;38.92;98476.21;106040;1277;25372;-74
2022/05/17 08:52:07;;;;;;;3.40;1.00;;;;;;;21.73;39.44;98477.86;105213;1282;137714;-75
2022/05/17 08:54:39;;;;;;;2.80;1.20;;;;;;;21.76;38.79;98479.17;105714;1283;25266;-75
2022/05/17 08:57:24;;;;;;;6.00;1.50;;;;;;;21.79;39.16;98477.30;105376;1282;137912;-75
2022/05/17 08:59:52;;;;;;;4.90;1.30;;;;;;;21.82;38.95;98478.61;105610;1283;25338;-75
2022/05/17 09:02:42;;;;;;;5.80;1.30;;;;;;;21.79;38.45;98477.85;105522;1282;22559;-75
2022/05/17 09:05:29;;;;;;;2.80;1.20;;;;;;;21.89;38.33;98478.65;105667;1282;137449;-75
2022/05/17 09:08:21;;;;;;;1.90;1.00;;;;;;;22.01;37.77;98477.89;105722;1284;32640;-75
2022/05/17 09:10:53;;;;;;;2.40;1.20;;;;;;;22.22;38.33;98478.52;105471;1284;138294;-75
2022/05/17 09:13:39;;;;;;;4.00;1.20;;;;;;;22.41;38.10;98476.48;105477;1284;24361;-75
2022/05/17 09:16:06;;;;;;;3.00;1.00;;;;;;;22.57;36.62;98479.11;105530;1284;138137;-75
2022/05/17 09:18:33;;;;;;;3.30;1.10;;;;;;;22.63;35.79;98475.05;105723;1284;23244;-75
2022/05/17 09:21:00;;;;;;;3.70;1.10;;;;;;;22.71;35.74;98474.53;105684;1282;138294;-75
2022/05/17 09:23:41;;;;;;;6.90;1.30;;;;;;;22.78;36.08;98480.26;105958;1281;24264;-75
2022/05/17 09:26:08;;;;;;;3.40;1.10;;;;;;;22.85;36.09;98477.31;105705;1279;25267;-75
2022/05/17 09:29:00;;;;;;;4.90;1.10;;;;;;;22.95;36.20;98476.61;106151;1279;138320;-75
2022/05/17 09:31:34;;;;;;;4.00;1.40;;;;;;;22.95;35.77;98472.16;106014;1279;25266;-75
2022/05/17 09:34:08;;;;;;;4.80;1.10;;;;;;;22.93;35.74;98471.90;105938;1279;137464;-75
2022/05/17 09:36:48;;;;;;;3.80;1.10;;;;;;;23.00;35.85;98473.64;106557;1279;23601;-75
2022/05/17 09:39:20;;;;;;;4.20;1.20;;;;;;;23.02;35.28;98472.13;106013;1280;137997;-75
2022/05/17 09:41:48;;;;;;;4.70;1.40;;;;;;;23.08;35.38;98475.88;106048;1279;23380;-75
2022/05/17 09:44:22;;;;;;;4.50;1.30;;;;;;;23.19;35.29;98476.33;106051;1279;23383;-75
2022/05/17 09:47:06;;;;;;;4.90;1.20;;;;;;;23.27;35.52;98468.16;106429;1279;138172;-75
2022/05/17 09:52:34;;;;;;;2.20;1.00;;;;;;;23.26;34.48;98466.13;106100;1280;137677;-74
2022/05/17 09:55:21;;;;;;;2.00;0.80;;;;;;;23.32;34.72;98468.84;106233;1279;25358;-74
2022/05/17 09:57:51;;;;;;;3.10;1.00;;;;;;;23.43;34.92;98466.55;106642;1279;138802;-74
2022/05/17 10:00:44;;;;;;;2.10;1.20;;;;;;;23.52;34.44;98474.33;106395;1279;22544;-74
2022/05/17 10:03:25;;;;;;;1.70;1.00;;;;;;;23.60;34.40;98471.40;105840;1280;137959;-74
2022/05/17 10:06:02;;;;;;;6.70;1.10;;;;;;;23.60;33.93;98472.34;105984;1280;25334;-74
2022/05/17 10:08:45;;;;;;;3.50;1.00;;;;;;;23.58;34.64;98470.93;106299;1280;25268;-73
2022/05/17 10:11:24;;;;;;;2.30;1.10;;;;;;;23.57;34.12;98471.27;106719;1277;137507;-74
2022/05/17 10:14:03;;;;;;;2.90;1.10;;;;;;;23.62;34.13;98470.96;105839;1277;416812;-74
2022/05/17 10:16:34;;;;;;;4.30;1.10;;;;;;;23.75;34.13;98473.87;105732;1277;137747;-74
2022/05/17 10:19:08;;;;;;;2.80;1.60;;;;;;;23.82;34.16;98472.59;106469;1278;22558;-74
2022/05/17 10:21:54;;;;;;;3.30;1.20;;;;;;;23.84;33.38;98472.23;106384;1279;137841;-74
2022/05/17 10:24:38;;;;;;;3.90;1.10;;;;;;;23.94;33.89;98464.92;106310;1279;22577;-74
2022/05/17 10:27:22;;;;;;;3.60;1.00;;;;;;;24.19;33.55;98462.60;105821;1280;137772;-74
2022/05/17 10:29:58;;;;;;;2.20;1.00;;;;;;;24.35;32.48;98455.53;106744;1277;31499;-74
2022/05/17 10:33:00;;;;;;;2.80;1.30;;;;;;;24.43;31.93;98454.93;106206;1280;22569;-74
2022/05/17 10:35:32;;;;;;;2.10;0.90;;;;;;;24.51;32.19;98453.31;105953;1278;137376;-74
2022/05/17 10:38:07;;;;;;;2.50;1.00;;;;;;;24.61;31.71;98456.11;106834;1277;25512;-74
2022/05/17 10:40:43;;;;;;;2.10;1.10;;;;;;;24.66;31.51;98451.86;106359;1279;137534;-74
2022/05/17 10:43:24;;;;;;;2.80;0.80;;;;;;;24.62;30.73;98451.05;105891;1279;24285;-74
2022/05/17 10:46:04;;;;;;;2.00;1.00;;;;;;;24.52;31.13;98453.77;105808;1279;137620;-74
2022/05/17 10:48:45;;;;;;;1.70;0.90;;;;;;;24.45;30.97;98457.83;105856;1278;22737;-74
2022/05/17 10:51:38;;;;;;;3.50;1.00;;;;;;;24.44;30.87;98457.25;106155;1277;138559;-74
2022/05/17 10:54:26;;;;;;;3.10;1.00;;;;;;;24.29;30.22;98457.11;106097;1277;25254;-74
2022/05/17 10:56:53;;;;;;;3.30;0.80;;;;;;;24.20;31.31;98454.36;106158;1277;22592;-74
2022/05/17 10:59:29;;;;;;;3.20;0.70;;;;;;;24.23;31.41;98454.09;105745;1278;137485;-74
2022/05/17 11:02:28;;;;;;;3.50;0.80;;;;;;;24.26;31.40;98454.80;106037;1280;24238;-74
2022/05/17 11:05:10;;;;;;;3.20;0.90;;;;;;;24.30;31.32;98451.82;106195;1279;137723;-74
2022/05/17 11:07:43;;;;;;;2.80;0.90;;;;;;;24.34;31.37;98457.40;105715;1280;26513;-74
2022/05/17 11:10:16;;;;;;;1.70;0.90;;;;;;;24.42;31.52;98455.52;105534;1278;137843;-74
2022/05/17 11:13:32;;;;;;;6.50;1.00;;;;;;;24.44;30.51;98451.70;106028;1277;24304;-74
2022/05/17 11:16:08;;;;;;;2.10;1.20;;;;;;;24.39;30.80;98455.08;105887;1278;138264;-74
2022/05/17 11:18:51;;;;;;;6.00;1.10;;;;;;;24.37;31.09;98456.17;105861;1277;22666;-74
2022/05/17 11:21:26;;;;;;;4.20;0.70;;;;;;;24.44;30.99;98452.70;105773;1279;137785;-73
2022/05/17 11:24:19;;;;;;;2.80;0.80;;;;;;;24.52;31.46;98454.70;105640;1280;22570;-74
2022/05/17 11:27:24;;;;;;;2.30;0.80;;;;;;;24.61;31.14;98453.66;105699;1280;25548;-74
2022/05/17 11:30:14;;;;;;;1.60;0.70;;;;;;;24.68;31.00;98453.67;105611;1277;137431;-74
2022/05/17 11:33:15;;;;;;;4.50;1.00;;;;;;;24.80;30.47;98458.52;106104;1277;23268;-74
2022/05/17 11:35:49;;;;;;;3.00;0.90;;;;;;;24.88;30.10;98462.40;105879;1277;137581;-74
2022/05/17 11:38:38;;;;;;;6.50;0.90;;;;;;;24.79;29.20;98464.36;105989;1278;26501;-74
2022/05/17 11:41:42;;;;;;;3.20;0.70;;;;;;;24.58;29.22;98463.52;105770;1278;137581;-74
2022/05/17 11:44:27;;;;;;;5.20;0.80;;;;;;;24.31;28.97;98467.08;105723;1279;23268;-74
2022/05/17 11:46:59;;;;;;;7.70;0.80;;;;;;;23.98;29.11;98470.48;105771;1279;137628;-74
2022/05/17 11:49:29;;;;;;;6.00;1.50;;;;;;;23.71;29.63;98477.45;105689;1280;22564;-74
2022/05/17 11:51:59;;;;;;;5.90;1.10;;;;;;;23.57;29.66;98479.70;105616;1281;137983;-74
2022/05/17 11:54:48;;;;;;;5.50;1.00;;;;;;;23.43;29.86;98483.07;106514;1279;22563;-74
2022/05/17 11:57:18;;;;;;;2.10;0.80;;;;;;;23.26;30.14;98486.69;106183;1278;25223;-74